Kodiak, AK

2:42 AM AKDT on September 04, 2015 (GMT -0800)
Baranof | | Change Station
CLOSE
Current Station
Personal Weather Station
Location: Kodiak, AK
Elevation: 85 ft
Nearby Weather Stations

Elev 85 ft 57.80 °N, 152.38 °W | Updated 2 minutes ago

Overcast
Overcast
55.8 °F
Feels Like 55.8 °F
N
0.0
Wind Variable Wind from East

Today
High -- | Low -- °F
--% Chance of Precip.
Yesterday
High -- | Low -- °F
Precip. -- in
7:16 AM 8:59 PM
Waning Gibbous, 61% visible
Pressure 29.76 in
Visibility 10.0 miles
Clouds Few 800 ft
Mostly Cloudy 1100 ft
Overcast 2000 ft
Dew Point 53 °F
Humidity 89%
Rainfall 0.00 in
Snow Depth Not available.
UV 0 out of 12
Pollen Not available.
Air Quality Not available.
Flu Activity Not available.
METAR PADQ 040953Z 00000KT 10SM FEW008 BKN011 OVC020 14/13 A2976 RMK SLP078 T01440128 VIA AUTODIAL
Pressure 29.76 in
Visibility 10.0 miles
Clouds Few 800 ft
Mostly Cloudy 1100 ft
Overcast 2000 ft
Dew Point 53 °F
Humidity 89%
Rainfall 0.00 in
Snow Depth Not available.
UV 0 out of 12
Pollen Not available.
Air Quality Not available.
Flu Activity Not available.
METAR PADQ 040953Z 00000KT 10SM FEW008 BKN011 OVC020 14/13 A2976 RMK SLP078 T01440128 VIA AUTODIAL

10-Day Weather Forecast

×

Almanac

Astronomy

Sep. 04, 2015 Rise Set
Actual Time
Civil Twilight
Nautical Twilight
Astronomical Twilight
Moon
Length of Visible Light
Length of Day
Tomorrow will be .
, % of the Moon is Illuminated

Today's Extremes

State Highs State Lows

Community

WunderPhotos

Upload Photos

1,852,146 photos uploaded!

WunderBlogs® & News

Nearby

Air Quality

  Air Quality AQ Index Pollutant
Not available.

Snow Depth

Station Depth Elevation

Earthquake Activity

City Distance Mag. Time & Date
Minimum magnitude displayed is 2.5.

Coastal Water Temperatures

Place Temperature

Stations

Nearby Weather Stations

Station Location Temp. Windchill Dew Point Humidity Wind Precip. Elev Updated Type